Time;durP1;ratioP1;P1;durP2;ratioP2;P2;SDS_P1;SDS_P2;PMS_P1;PMS_P2;Temp;Humidity;BMP_temperature;BMP_pressure;BME280_temperature;BME280_humidity;BME280_pressure;Samples;Min_cycle;Max_cycle;Signal;HPM_P1;HPM_P2
2021/05/21 00:01:42;;;;;;;36.97;5.40;;;;;;;;;;5078793;28;20025;-68
2021/05/21 00:04:08;;;;;;;30.33;5.32;;;;;;;;;;5080539;28;20044;-68
2021/05/21 00:06:34;;;;;;;33.70;6.00;;;;;;;;;;5080854;28;20027;-69
2021/05/21 00:09:00;;;;;;;33.72;5.32;;;;;;;;;;5082837;28;20503;-68
2021/05/21 00:11:26;;;;;;;37.53;6.93;;;;;;;;;;5086189;28;20036;-68
2021/05/21 00:13:52;;;;;;;37.80;6.90;;;;;;;;;;5078731;28;20086;-67
2021/05/21 00:16:18;;;;;;;37.90;7.38;;;;;;;;;;5062362;28;20560;-67
2021/05/21 00:18:48;;;;;;;34.78;5.88;;;;;;;;;;5081907;28;20097;-68
2021/05/21 00:21:14;;;;;;;33.65;6.40;;;;;;;;;;5080447;28;20024;-70
2021/05/21 00:23:40;;;;;;;39.00;5.60;;;;;;;;;;5079573;28;20395;-69
2021/05/21 00:26:06;;;;;;;33.58;7.07;;;;;;;;;;5079814;28;20499;-68
2021/05/21 00:28:32;;;;;;;37.17;6.65;;;;;;;;;;5065466;28;20028;-68
2021/05/21 00:30:58;;;;;;;40.22;5.85;;;;;;;;;;5080432;28;20032;-68
2021/05/21 00:33:24;;;;;;;37.33;6.05;;;;;;;;;;5066455;28;20024;-69
2021/05/21 00:35:50;;;;;;;34.13;6.30;;;;;;;;;;5080600;28;20427;-69
2021/05/21 00:38:16;;;;;;;35.60;4.88;;;;;;;;;;5077679;28;20033;-67
2021/05/21 00:40:42;;;;;;;34.08;5.18;;;;;;;;;;5082101;28;20510;-67
2021/05/21 00:43:08;;;;;;;20.13;3.25;;;;;;;;;;5083246;28;20025;-70
2021/05/21 00:45:34;;;;;;;37.10;6.45;;;;;;;;;;5082197;28;20058;-67
2021/05/21 00:48:00;;;;;;;36.92;5.03;;;;;;;;;;5077149;28;20500;-68
2021/05/21 00:50:26;;;;;;;33.47;4.50;;;;;;;;;;5083586;28;20031;-69
2021/05/21 00:52:53;;;;;;;30.92;6.35;;;;;;;;;;5082898;28;20024;-69
2021/05/21 00:55:20;;;;;;;22.30;4.65;;;;;;;;;;5086009;28;21789;-66
2021/05/21 00:57:46;;;;;;;31.60;5.45;;;;;;;;;;5062819;28;20042;-67
2021/05/21 01:00:13;;;;;;;19.13;4.65;;;;;;;;;;5083804;28;20024;-69
2021/05/21 01:02:39;;;;;;;29.33;6.30;;;;;;;;;;5081760;28;20537;-68
2021/05/21 01:05:06;;;;;;;30.45;4.97;;;;;;;;;;5084099;28;20056;-69
2021/05/21 01:07:32;;;;;;;25.75;4.05;;;;;;;;;;5087611;28;20024;-69
2021/05/21 01:09:58;;;;;;;28.58;5.10;;;;;;;;;;5083776;28;20106;-68
2021/05/21 01:12:24;;;;;;;38.75;5.82;;;;;;;;;;5078006;28;20021;-68
2021/05/21 01:14:51;;;;;;;33.45;5.18;;;;;;;;;;5083676;28;20033;-66
2021/05/21 01:17:18;;;;;;;30.92;6.30;;;;;;;;;;5079262;28;20020;-68
2021/05/21 01:19:44;;;;;;;20.33;3.22;;;;;;;;;;5080271;28;20033;-69
2021/05/21 01:22:11;;;;;;;28.20;5.82;;;;;;;;;;5083921;28;20046;-69
2021/05/21 01:24:37;;;;;;;41.30;5.43;;;;;;;;;;5065044;28;20027;-68
2021/05/21 01:27:04;;;;;;;34.55;6.05;;;;;;;;;;5081371;28;20031;-68
2021/05/21 01:29:30;;;;;;;26.02;6.50;;;;;;;;;;5079461;28;20063;-67
2021/05/21 01:31:56;;;;;;;26.80;5.18;;;;;;;;;;5077603;28;20060;-69
2021/05/21 01:34:22;;;;;;;32.47;5.22;;;;;;;;;;5080431;28;20032;-69
2021/05/21 01:36:48;;;;;;;33.35;5.60;;;;;;;;;;5080670;28;20027;-69
2021/05/21 01:39:14;;;;;;;32.63;5.13;;;;;;;;;;5062195;28;20029;-72
2021/05/21 01:41:44;;;;;;;33.50;5.00;;;;;;;;;;5078883;28;20031;-68
2021/05/21 01:44:12;;;;;;;32.75;5.38;;;;;;;;;;5078280;28;20031;-67
2021/05/21 01:46:38;;;;;;;34.35;4.50;;;;;;;;;;5079582;28;20024;-68
2021/05/21 01:49:05;;;;;;;43.47;5.35;;;;;;;;;;5080888;28;20047;-68
2021/05/21 01:51:31;;;;;;;36.72;6.45;;;;;;;;;;5079112;28;20700;-68
2021/05/21 01:54:10;;;;;;;32.08;5.20;;;;;;;;;;5077374;28;20445;-67
2021/05/21 01:56:36;;;;;;;25.70;4.93;;;;;;;;;;5059555;28;20063;-67
2021/05/21 01:59:03;;;;;;;26.60;4.47;;;;;;;;;;5081220;28;20027;-66
2021/05/21 02:01:29;;;;;;;24.23;4.40;;;;;;;;;;5080339;28;20028;-68
2021/05/21 02:03:55;;;;;;;28.98;5.05;;;;;;;;;;5080021;28;20566;-69
2021/05/21 02:06:21;;;;;;;23.92;4.93;;;;;;;;;;5079452;28;20043;-67
2021/05/21 02:08:47;;;;;;;28.58;4.50;;;;;;;;;;5079843;28;20515;-67
2021/05/21 02:11:13;;;;;;;24.52;4.60;;;;;;;;;;5080217;28;20036;-67
2021/05/21 02:13:39;;;;;;;29.58;4.85;;;;;;;;;;5084114;28;20101;-67
2021/05/21 02:16:05;;;;;;;31.52;5.18;;;;;;;;;;5080042;28;20028;-68
2021/05/21 02:18:31;;;;;;;29.95;5.22;;;;;;;;;;5076181;28;20020;-66
2021/05/21 02:20:57;;;;;;;26.67;4.63;;;;;;;;;;5079634;28;20127;-66
2021/05/21 02:23:23;;;;;;;28.98;4.65;;;;;;;;;;5079636;28;20107;-68
2021/05/21 02:25:49;;;;;;;36.20;4.90;;;;;;;;;;5064774;28;20026;-67
2021/05/21 02:28:15;;;;;;;29.23;6.80;;;;;;;;;;5078728;28;20032;-68
2021/05/21 02:30:41;;;;;;;34.60;5.20;;;;;;;;;;5080049;28;20029;-67
2021/05/21 02:33:07;;;;;;;28.63;4.15;;;;;;;;;;5064071;28;20040;-68
2021/05/21 02:35:33;;;;;;;33.33;6.15;;;;;;;;;;5078676;28;20036;-68
2021/05/21 02:37:59;;;;;;;33.50;5.82;;;;;;;;;;5078721;28;20028;-68
2021/05/21 02:40:25;;;;;;;41.35;6.13;;;;;;;;;;5084931;28;20016;-68
2021/05/21 02:42:52;;;;;;;34.30;6.82;;;;;;;;;;5085668;28;20073;-67
2021/05/21 02:45:18;;;;;;;26.85;5.63;;;;;;;;;;5079961;28;20020;-66
2021/05/21 02:47:44;;;;;;;27.33;4.75;;;;;;;;;;5085209;28;20012;-67
2021/05/21 02:50:11;;;;;;;27.35;4.72;;;;;;;;;;5085551;28;20112;-67
2021/05/21 02:52:37;;;;;;;33.60;5.88;;;;;;;;;;5084108;28;20106;-68
2021/05/21 02:55:04;;;;;;;27.73;5.22;;;;;;;;;;5078943;28;20471;-67
2021/05/21 02:57:30;;;;;;;35.88;4.70;;;;;;;;;;5080919;28;20044;-67
2021/05/21 02:59:56;;;;;;;33.08;5.30;;;;;;;;;;5083561;28;20059;-68
2021/05/21 03:02:23;;;;;;;21.27;3.90;;;;;;;;;;5088719;28;20028;-68
2021/05/21 03:04:51;;;;;;;34.40;4.43;;;;;;;;;;5082262;28;20534;-67
2021/05/21 03:07:17;;;;;;;25.52;4.85;;;;;;;;;;5082591;28;20024;-67
2021/05/21 03:09:43;;;;;;;28.63;5.00;;;;;;;;;;5082954;28;20035;-67
2021/05/21 03:12:09;;;;;;;24.27;5.75;;;;;;;;;;5083032;28;20025;-67
2021/05/21 03:14:35;;;;;;;24.73;3.88;;;;;;;;;;5083048;28;20028;-66
2021/05/21 03:17:02;;;;;;;36.20;6.20;;;;;;;;;;5087224;28;20558;-68
2021/05/21 03:19:28;;;;;;;29.23;4.50;;;;;;;;;;5081342;28;20111;-66
2021/05/21 03:21:55;;;;;;;31.58;3.92;;;;;;;;;;5088023;28;20046;-69
2021/05/21 03:24:21;;;;;;;29.23;6.20;;;;;;;;;;5084737;28;20062;-67
2021/05/21 03:26:47;;;;;;;27.20;4.72;;;;;;;;;;5091948;28;20573;-67
2021/05/21 03:29:14;;;;;;;26.77;4.68;;;;;;;;;;5081679;28;20024;-68
2021/05/21 03:31:40;;;;;;;22.70;3.60;;;;;;;;;;5081438;28;20519;-67
2021/05/21 03:34:07;;;;;;;30.05;4.85;;;;;;;;;;5083921;28;20033;-67
2021/05/21 03:36:33;;;;;;;32.33;4.30;;;;;;;;;;5072034;28;20063;-68
2021/05/21 03:38:59;;;;;;;36.13;4.97;;;;;;;;;;5058798;28;20039;-66
2021/05/21 03:41:25;;;;;;;26.67;4.13;;;;;;;;;;5084545;28;20104;-67
2021/05/21 03:43:51;;;;;;;33.22;4.88;;;;;;;;;;5088990;28;20399;-68
2021/05/21 03:46:17;;;;;;;23.98;3.92;;;;;;;;;;5087482;28;20542;-68
2021/05/21 03:48:44;;;;;;;22.90;3.72;;;;;;;;;;5082079;28;20027;-68
2021/05/21 03:51:10;;;;;;;27.05;4.72;;;;;;;;;;5088730;28;20052;-68
2021/05/21 03:53:36;;;;;;;30.10;4.10;;;;;;;;;;5083617;28;20025;-68
2021/05/21 03:56:02;;;;;;;22.30;3.40;;;;;;;;;;5085548;28;20051;-68
2021/05/21 03:58:28;;;;;;;27.38;5.38;;;;;;;;;;5079770;28;20032;-68
2021/05/21 04:00:54;;;;;;;31.63;4.47;;;;;;;;;;5070978;28;20498;-68
2021/05/21 04:03:20;;;;;;;20.95;3.33;;;;;;;;;;5087377;28;20044;-67
2021/05/21 04:05:46;;;;;;;24.63;4.35;;;;;;;;;;5086466;28;20521;-66
2021/05/21 04:08:12;;;;;;;20.13;3.22;;;;;;;;;;5090022;28;20036;-67
2021/05/21 04:10:38;;;;;;;26.50;5.05;;;;;;;;;;5081854;28;20028;-68
2021/05/21 04:13:05;;;;;;;20.50;4.40;;;;;;;;;;5076900;28;20044;-69
2021/05/21 04:15:31;;;;;;;26.50;3.83;;;;;;;;;;5066527;28;20051;-67
2021/05/21 04:17:57;;;;;;;29.65;4.63;;;;;;;;;;5089655;28;20111;-67
2021/05/21 04:20:23;;;;;;;22.45;5.22;;;;;;;;;;5082057;28;20062;-67
2021/05/21 04:22:49;;;;;;;25.75;4.53;;;;;;;;;;5087203;28;20420;-68
2021/05/21 04:25:15;;;;;;;25.88;3.97;;;;;;;;;;5076956;28;20106;-66
2021/05/21 04:27:41;;;;;;;20.73;3.53;;;;;;;;;;5052671;28;20024;-67
2021/05/21 04:30:08;;;;;;;27.88;4.38;;;;;;;;;;5076417;28;20028;-68
2021/05/21 04:32:34;;;;;;;30.83;4.35;;;;;;;;;;5071174;28;20111;-65
2021/05/21 04:35:00;;;;;;;26.75;4.88;;;;;;;;;;5081698;28;20021;-67
2021/05/21 04:37:26;;;;;;;20.02;3.72;;;;;;;;;;5071181;28;20067;-68
2021/05/21 04:39:52;;;;;;;29.30;4.78;;;;;;;;;;5089557;28;20517;-70
2021/05/21 04:42:18;;;;;;;19.35;3.70;;;;;;;;;;5089149;28;20107;-67
2021/05/21 04:44:44;;;;;;;19.45;4.13;;;;;;;;;;5086149;28;20454;-67
2021/05/21 04:47:11;;;;;;;30.33;4.88;;;;;;;;;;5073168;28;21450;-68
2021/05/21 04:49:37;;;;;;;30.67;5.63;;;;;;;;;;5082827;28;20028;-69
2021/05/21 04:52:04;;;;;;;27.05;4.07;;;;;;;;;;5084773;28;20093;-67
2021/05/21 04:54:30;;;;;;;21.63;4.10;;;;;;;;;;5085266;28;20024;-67
2021/05/21 04:56:56;;;;;;;27.02;4.22;;;;;;;;;;5083158;28;20510;-69
2021/05/21 04:59:23;;;;;;;27.58;5.93;;;;;;;;;;5085124;28;20032;-68
2021/05/21 05:01:49;;;;;;;40.22;5.45;;;;;;;;;;5067627;28;20028;-67
2021/05/21 05:04:15;;;;;;;20.52;5.20;;;;;;;;;;5086405;28;20059;-68
2021/05/21 05:06:42;;;;;;;33.17;5.35;;;;;;;;;;5083158;28;20219;-67
2021/05/21 05:09:08;;;;;;;29.67;4.38;;;;;;;;;;5083026;28;20081;-68
2021/05/21 05:11:37;;;;;;;22.95;4.75;;;;;;;;;;5060038;28;20127;-67
2021/05/21 05:14:04;;;;;;;24.42;3.65;;;;;;;;;;5079707;28;20028;-68
2021/05/21 05:16:30;;;;;;;21.83;4.20;;;;;;;;;;5081247;28;20043;-68
2021/05/21 05:18:56;;;;;;;25.92;4.78;;;;;;;;;;5079218;28;20020;-68
2021/05/21 05:21:22;;;;;;;19.80;3.83;;;;;;;;;;5063292;28;20034;-68
2021/05/21 05:23:48;;;;;;;20.75;3.88;;;;;;;;;;5060812;28;20052;-67
2021/05/21 05:26:15;;;;;;;25.95;5.43;;;;;;;;;;5081263;28;20032;-67
2021/05/21 05:28:44;;;;;;;28.17;4.72;;;;;;;;;;5077549;28;20024;-67
2021/05/21 05:31:11;;;;;;;33.70;4.65;;;;;;;;;;5088012;28;20123;-67
2021/05/21 05:33:37;;;;;;;25.05;5.50;;;;;;;;;;5064972;28;20016;-68
2021/05/21 05:36:03;;;;;;;23.98;4.85;;;;;;;;;;5070803;28;20028;-67
2021/05/21 05:38:32;;;;;;;25.65;4.35;;;;;;;;;;5074856;28;20032;-68
2021/05/21 05:40:58;;;;;;;33.67;6.93;;;;;;;;;;5086920;28;20071;-68
2021/05/21 05:43:24;;;;;;;28.00;5.95;;;;;;;;;;5088094;28;20039;-68
2021/05/21 05:45:51;;;;;;;33.25;4.43;;;;;;;;;;5071732;28;20059;-67
2021/05/21 05:48:19;;;;;;;27.52;5.82;;;;;;;;;;5086522;28;20028;-67
2021/05/21 05:50:45;;;;;;;25.48;4.47;;;;;;;;;;5084824;28;20365;-68
2021/05/21 05:53:11;;;;;;;29.38;4.97;;;;;;;;;;5089931;28;20032;-68
2021/05/21 05:55:37;;;;;;;31.17;4.78;;;;;;;;;;5072068;28;20032;-68
2021/05/21 05:58:03;;;;;;;33.22;4.95;;;;;;;;;;5073508;28;20103;-67
2021/05/21 06:00:29;;;;;;;17.92;4.38;;;;;;;;;;5090279;28;20024;-68
2021/05/21 06:02:56;;;;;;;31.63;4.93;;;;;;;;;;5072224;28;20036;-67
2021/05/21 06:05:22;;;;;;;29.00;4.97;;;;;;;;;;5088724;28;20097;-68
2021/05/21 06:07:48;;;;;;;26.60;4.80;;;;;;;;;;5069301;28;20484;-69
2021/05/21 06:10:14;;;;;;;30.25;5.78;;;;;;;;;;5090073;28;20028;-67
2021/05/21 06:12:41;;;;;;;31.15;4.95;;;;;;;;;;5071993;28;20016;-69
2021/05/21 06:15:07;;;;;;;24.42;5.20;;;;;;;;;;5091056;28;20032;-67
2021/05/21 06:17:33;;;;;;;26.92;4.10;;;;;;;;;;5089928;28;20469;-71
2021/05/21 06:19:59;;;;;;;18.80;4.05;;;;;;;;;;5093608;28;20024;-67
2021/05/21 06:22:25;;;;;;;18.73;3.83;;;;;;;;;;5093695;28;20016;-67
2021/05/21 06:24:52;;;;;;;39.42;5.75;;;;;;;;;;5093731;28;20051;-68
2021/05/21 06:27:19;;;;;;;29.77;5.05;;;;;;;;;;5090904;28;20095;-68
2021/05/21 06:29:46;;;;;;;30.23;4.20;;;;;;;;;;5093306;28;20023;-68
2021/05/21 06:32:12;;;;;;;26.65;4.97;;;;;;;;;;5093503;28;20056;-70
2021/05/21 06:34:38;;;;;;;31.45;5.30;;;;;;;;;;5073735;28;20081;-67
2021/05/21 06:37:04;;;;;;;24.50;3.75;;;;;;;;;;5071105;28;20035;-68
2021/05/21 06:39:30;;;;;;;30.85;4.97;;;;;;;;;;5090647;28;20081;-66
2021/05/21 06:41:56;;;;;;;21.83;5.47;;;;;;;;;;5089672;28;20029;-67
2021/05/21 06:44:22;;;;;;;32.60;4.85;;;;;;;;;;5092292;28;20098;-68
2021/05/21 06:46:48;;;;;;;26.23;4.28;;;;;;;;;;5089736;28;20020;-68
2021/05/21 06:49:14;;;;;;;22.45;4.15;;;;;;;;;;5093003;28;20040;-66
2021/05/21 06:51:41;;;;;;;24.17;4.13;;;;;;;;;;5087835;28;20021;-68
2021/05/21 06:54:07;;;;;;;25.48;5.40;;;;;;;;;;5084369;28;20077;-67
2021/05/21 06:56:39;;;;;;;31.65;4.63;;;;;;;;;;5082327;28;20031;-67
2021/05/21 06:59:05;;;;;;;19.95;5.00;;;;;;;;;;5088954;28;20036;-68
2021/05/21 07:01:31;;;;;;;21.08;5.50;;;;;;;;;;5092047;28;20081;-66
2021/05/21 07:03:58;;;;;;;16.50;4.15;;;;;;;;;;5087559;28;20507;-68
2021/05/21 07:06:24;;;;;;;27.38;4.53;;;;;;;;;;5081153;28;20027;-67
2021/05/21 07:08:50;;;;;;;25.70;4.60;;;;;;;;;;5091316;28;20024;-68
2021/05/21 07:11:17;;;;;;;27.50;5.75;;;;;;;;;;5093326;28;20110;-68
2021/05/21 07:13:43;;;;;;;27.05;4.43;;;;;;;;;;5073537;28;20032;-67
2021/05/21 07:16:10;;;;;;;24.58;4.82;;;;;;;;;;5078833;28;20028;-68
2021/05/21 07:18:36;;;;;;;19.45;3.90;;;;;;;;;;5053696;28;20190;-67
2021/05/21 07:21:03;;;;;;;24.10;4.07;;;;;;;;;;5090819;28;20021;-69
2021/05/21 07:23:29;;;;;;;26.45;4.47;;;;;;;;;;5092849;28;20503;-68
2021/05/21 07:25:56;;;;;;;25.13;5.30;;;;;;;;;;5073528;28;20029;-67
2021/05/21 07:28:24;;;;;;;16.52;2.80;;;;;;;;;;5080699;28;20028;-69
2021/05/21 07:30:50;;;;;;;18.38;3.35;;;;;;;;;;5085738;28;20495;-68
2021/05/21 07:33:16;;;;;;;24.17;4.75;;;;;;;;;;5087084;28;20099;-68
2021/05/21 07:35:42;;;;;;;22.40;3.83;;;;;;;;;;5074088;28;20024;-66
2021/05/21 07:38:08;;;;;;;17.77;3.25;;;;;;;;;;5089518;28;20073;-67
2021/05/21 07:40:34;;;;;;;23.85;4.13;;;;;;;;;;5092395;28;20020;-70
2021/05/21 07:43:01;;;;;;;24.70;4.97;;;;;;;;;;5075254;28;20036;-69
2021/05/21 07:45:27;;;;;;;30.65;4.43;;;;;;;;;;5072307;28;20028;-69
2021/05/21 07:47:53;;;;;;;20.40;3.13;;;;;;;;;;5071334;28;20028;-69
2021/05/21 07:50:19;;;;;;;22.42;4.63;;;;;;;;;;5072079;28;20107;-69
2021/05/21 07:52:45;;;;;;;24.58;4.68;;;;;;;;;;5067886;28;20032;-66
2021/05/21 07:55:12;;;;;;;19.95;4.68;;;;;;;;;;5086361;28;20028;-67
2021/05/21 07:57:38;;;;;;;31.85;4.53;;;;;;;;;;5081732;28;20028;-68
2021/05/21 08:00:05;;;;;;;22.23;4.20;;;;;;;;;;5090804;28;20035;-69
2021/05/21 08:02:31;;;;;;;24.25;4.63;;;;;;;;;;5070099;28;20020;-67
2021/05/21 08:04:57;;;;;;;31.10;4.63;;;;;;;;;;5092279;28;20040;-69
2021/05/21 08:07:23;;;;;;;21.35;4.10;;;;;;;;;;5089583;28;20032;-69
2021/05/21 08:09:51;;;;;;;23.23;4.13;;;;;;;;;;5091449;28;20103;-68
2021/05/21 08:12:17;;;;;;;22.73;4.00;;;;;;;;;;5092109;28;20495;-68
2021/05/21 08:14:44;;;;;;;30.80;4.18;;;;;;;;;;5092147;28;20483;-69
2021/05/21 08:17:10;;;;;;;27.75;4.10;;;;;;;;;;5081752;28;20111;-68
2021/05/21 08:19:37;;;;;;;19.98;3.95;;;;;;;;;;5071249;28;20075;-69
2021/05/21 08:22:03;;;;;;;20.98;4.18;;;;;;;;;;5075324;28;20024;-68
2021/05/21 08:24:29;;;;;;;21.17;4.53;;;;;;;;;;5091923;28;20050;-69
2021/05/21 08:26:55;;;;;;;23.15;4.45;;;;;;;;;;5089068;28;20080;-70
2021/05/21 08:29:21;;;;;;;19.90;3.42;;;;;;;;;;5091805;28;20036;-68
2021/05/21 08:31:48;;;;;;;25.58;4.55;;;;;;;;;;5073633;28;20058;-67
2021/05/21 08:34:14;;;;;;;26.45;4.10;;;;;;;;;;5091716;28;20123;-69
2021/05/21 08:36:40;;;;;;;14.60;3.28;;;;;;;;;;5079342;28;20098;-70
2021/05/21 08:39:06;;;;;;;18.67;3.28;;;;;;;;;;5087680;28;20035;-69
2021/05/21 08:41:36;;;;;;;21.92;4.57;;;;;;;;;;5086074;28;20012;-67
2021/05/21 08:44:03;;;;;;;18.17;4.75;;;;;;;;;;5071490;28;20038;-68
2021/05/21 08:46:32;;;;;;;22.35;4.68;;;;;;;;;;5069575;28;20535;-65
2021/05/21 08:48:58;;;;;;;20.77;3.85;;;;;;;;;;5052804;28;20115;-67
2021/05/21 08:51:26;;;;;;;23.08;3.72;;;;;;;;;;5074259;28;20491;-68
2021/05/21 08:53:52;;;;;;;27.85;4.18;;;;;;;;;;5086255;28;20266;-68
2021/05/21 08:56:18;;;;;;;29.48;5.55;;;;;;;;;;5088603;28;20031;-68
2021/05/21 08:58:44;;;;;;;20.17;4.03;;;;;;;;;;5089290;28;20024;-67
2021/05/21 09:01:11;;;;;;;17.20;3.00;;;;;;;;;;5091179;28;20026;-68
2021/05/21 09:03:37;;;;;;;19.23;3.92;;;;;;;;;;5072432;28;20032;-67
2021/05/21 09:06:19;;;;;;;26.50;5.07;;;;;;;;;;5091477;28;20111;-67
2021/05/21 09:08:49;;;;;;;19.13;3.25;;;;;;;;;;5070822;28;20020;-68
2021/05/21 09:11:24;;;;;;;18.80;3.47;;;;;;;;;;5091041;28;20027;-68
2021/05/21 09:13:52;;;;;;;21.65;1.83;;;;;;;;;;5078342;28;20025;-69
2021/05/21 09:16:22;;;;;;;18.45;3.45;;;;;;;;;;5070302;28;20027;-67
2021/05/21 09:19:03;;;;;;;23.65;3.03;;;;;;;;;;5070465;28;20253;-67
2021/05/21 09:21:45;;;;;;;13.43;1.97;;;;;;;;;;5085459;28;20046;-67
2021/05/21 09:24:12;;;;;;;18.02;3.30;;;;;;;;;;5076373;28;20249;-68
2021/05/21 09:26:39;;;;;;;17.60;4.03;;;;;;;;;;5087912;28;20013;-67
2021/05/21 09:29:06;;;;;;;21.27;4.35;;;;;;;;;;5091104;28;20518;-68
2021/05/21 09:31:41;;;;;;;14.88;3.08;;;;;;;;;;5090662;28;20107;-69
2021/05/21 09:34:07;;;;;;;16.95;3.45;;;;;;;;;;5071082;28;20089;-69
2021/05/21 09:36:35;;;;;;;18.13;2.95;;;;;;;;;;5076689;28;20327;-69
2021/05/21 09:39:05;;;;;;;18.50;4.10;;;;;;;;;;5090593;28;20024;-69
2021/05/21 09:41:31;;;;;;;12.98;3.03;;;;;;;;;;5084613;28;20545;-69
2021/05/21 09:43:59;;;;;;;18.17;3.47;;;;;;;;;;5071283;28;20020;-70
2021/05/21 09:46:36;;;;;;;21.67;3.25;;;;;;;;;;5089180;28;20031;-68
2021/05/21 09:49:22;;;;;;;16.27;2.97;;;;;;;;;;5072987;28;20069;-68
2021/05/21 09:51:52;;;;;;;25.50;3.20;;;;;;;;;;5057365;28;20021;-66
2021/05/21 09:54:18;;;;;;;15.73;3.20;;;;;;;;;;5082848;28;20027;-68
2021/05/21 09:56:59;;;;;;;22.30;3.90;;;;;;;;;;5072877;28;20028;-68
2021/05/21 09:59:41;;;;;;;27.92;3.72;;;;;;;;;;5075599;28;20127;-67
2021/05/21 10:02:20;;;;;;;18.60;3.47;;;;;;;;;;5074571;28;20025;-66
2021/05/21 10:04:46;;;;;;;18.75;4.30;;;;;;;;;;5080976;28;20059;-68
2021/05/21 10:07:13;;;;;;;20.65;3.33;;;;;;;;;;5063146;28;20081;-68
2021/05/21 10:09:39;;;;;;;22.25;3.33;;;;;;;;;;5075672;28;20049;-67
2021/05/21 10:12:06;;;;;;;16.98;3.40;;;;;;;;;;5082207;28;20028;-68
2021/05/21 10:14:33;;;;;;;22.58;4.93;;;;;;;;;;5091132;28;20034;-67
2021/05/21 10:17:00;;;;;;;28.17;3.88;;;;;;;;;;5069505;28;20475;-66
2021/05/21 10:19:27;;;;;;;22.67;3.70;;;;;;;;;;5075630;28;20084;-68
2021/05/21 10:21:54;;;;;;;37.58;6.43;;;;;;;;;;5094025;28;20169;-68
2021/05/21 10:24:21;;;;;;;26.95;3.92;;;;;;;;;;5094225;28;20055;-67
2021/05/21 10:26:50;;;;;;;13.60;2.97;;;;;;;;;;5091526;28;20028;-69
2021/05/21 10:29:19;;;;;;;13.27;2.15;;;;;;;;;;5091326;28;20047;-69
2021/05/21 10:31:45;;;;;;;17.10;3.15;;;;;;;;;;5080655;28;20024;-69
2021/05/21 10:34:14;;;;;;;21.02;2.75;;;;;;;;;;5092543;28;20028;-68
2021/05/21 10:36:40;;;;;;;19.25;3.22;;;;;;;;;;5091077;28;20043;-66
2021/05/21 10:39:06;;;;;;;24.55;3.13;;;;;;;;;;5075552;28;20066;-68
2021/05/21 10:41:32;;;;;;;23.52;4.15;;;;;;;;;;5074632;28;20479;-68
2021/05/21 10:43:59;;;;;;;17.75;4.30;;;;;;;;;;5093844;28;20166;-67
2021/05/21 10:46:31;;;;;;;29.92;4.15;;;;;;;;;;5091137;28;20559;-69
2021/05/21 10:48:58;;;;;;;15.73;3.45;;;;;;;;;;5091971;28;20032;-71
2021/05/21 10:51:25;;;;;;;15.00;2.92;;;;;;;;;;5072980;28;20031;-70
2021/05/21 10:54:10;;;;;;;15.68;2.55;;;;;;;;;;5077494;28;20043;-71
2021/05/21 10:56:45;;;;;;;18.45;3.83;;;;;;;;;;5086585;28;20020;-71
2021/05/21 10:59:11;;;;;;;19.45;3.42;;;;;;;;;;5085036;28;20032;-69
2021/05/21 11:01:47;;;;;;;22.17;4.38;;;;;;;;;;5084938;28;20445;-68
2021/05/21 11:04:17;;;;;;;12.55;2.53;;;;;;;;;;5070222;28;20043;-66
2021/05/21 11:06:44;;;;;;;17.35;3.55;;;;;;;;;;5086289;28;20031;-72
2021/05/21 11:09:11;;;;;;;13.80;2.50;;;;;;;;;;5092721;28;20169;-68
2021/05/21 11:11:50;;;;;;;19.38;2.92;;;;;;;;;;5091545;28;20035;-70
2021/05/21 11:14:29;;;;;;;8.18;2.30;;;;;;;;;;5086414;28;20088;-69
2021/05/21 11:16:56;;;;;;;19.77;3.58;;;;;;;;;;5079924;28;20048;-70
2021/05/21 11:19:23;;;;;;;14.77;3.00;;;;;;;;;;5087628;28;20111;-69
2021/05/21 11:22:28;;;;;;;16.00;2.88;;;;;;;;;;5071809;28;20047;-67
2021/05/21 11:24:55;;;;;;;17.02;3.33;;;;;;;;;;4984550;28;20066;-71
2021/05/21 11:27:21;;;;;;;20.20;3.38;;;;;;;;;;4981995;28;20030;-69
2021/05/21 11:29:49;;;;;;;16.98;2.92;;;;;;;;;;5037626;28;20531;-68
2021/05/21 11:32:16;;;;;;;9.60;1.60;;;;;;;;;;5090045;28;20104;-67
2021/05/21 11:34:43;;;;;;;11.18;2.67;;;;;;;;;;5086363;28;20016;-68
2021/05/21 11:37:09;;;;;;;15.85;2.78;;;;;;;;;;5089334;28;20024;-68
2021/05/21 11:39:38;;;;;;;23.73;2.80;;;;;;;;;;5084024;28;20407;-71
2021/05/21 11:42:05;;;;;;;12.85;2.50;;;;;;;;;;5074585;28;20036;-70
2021/05/21 11:44:32;;;;;;;9.43;2.15;;;;;;;;;;5092269;28;20099;-70
2021/05/21 11:46:58;;;;;;;17.33;2.35;;;;;;;;;;5080017;28;20077;-67
2021/05/21 11:49:25;;;;;;;17.00;3.03;;;;;;;;;;5090017;28;20031;-73
2021/05/21 11:51:54;;;;;;;19.50;4.38;;;;;;;;;;5071179;28;20073;-70
2021/05/21 11:54:21;;;;;;;20.10;2.63;;;;;;;;;;5091481;28;20097;-68
2021/05/21 11:56:47;;;;;;;23.38;3.22;;;;;;;;;;5070742;28;20020;-67
2021/05/21 11:59:17;;;;;;;17.52;4.13;;;;;;;;;;5084878;28;20047;-68
2021/05/21 12:01:47;;;;;;;21.05;3.53;;;;;;;;;;5092115;28;20487;-69
2021/05/21 12:04:14;;;;;;;31.02;4.88;;;;;;;;;;5087994;28;20040;-71
2021/05/21 12:06:43;;;;;;;21.10;3.42;;;;;;;;;;5069404;28;20324;-70
2021/05/21 12:09:10;;;;;;;27.10;3.92;;;;;;;;;;5072936;28;20028;-69
2021/05/21 12:11:36;;;;;;;19.98;3.95;;;;;;;;;;5080042;28;20529;-70
2021/05/21 12:14:03;;;;;;;23.13;3.88;;;;;;;;;;5081319;28;20037;-69
2021/05/21 12:16:31;;;;;;;23.58;3.67;;;;;;;;;;5080826;28;20435;-72
2021/05/21 12:18:58;;;;;;;23.88;4.03;;;;;;;;;;5089685;28;20019;-70
2021/05/21 12:21:25;;;;;;;30.30;5.38;;;;;;;;;;5072017;28;20267;-72
2021/05/21 12:23:52;;;;;;;21.85;4.22;;;;;;;;;;5087836;28;20553;-72
2021/05/21 12:26:20;;;;;;;18.17;3.75;;;;;;;;;;5091047;28;20441;-70
2021/05/21 12:28:46;;;;;;;19.23;3.13;;;;;;;;;;5090321;28;20012;-74
2021/05/21 12:31:12;;;;;;;25.08;3.58;;;;;;;;;;5089844;28;20024;-70
2021/05/21 12:33:42;;;;;;;23.77;3.30;;;;;;;;;;5089472;28;20024;-73
2021/05/21 12:36:11;;;;;;;19.63;3.78;;;;;;;;;;5089758;28;20081;-73
2021/05/21 12:38:38;;;;;;;18.02;2.67;;;;;;;;;;5088914;28;20501;-71
2021/05/21 12:41:04;;;;;;;12.80;2.83;;;;;;;;;;5088828;28;20024;-69
2021/05/21 12:43:30;;;;;;;18.67;3.55;;;;;;;;;;5070270;28;20667;-68
2021/05/21 12:46:05;;;;;;;16.85;4.30;;;;;;;;;;5089761;28;20035;-71
2021/05/21 12:48:41;;;;;;;19.35;4.30;;;;;;;;;;5089587;28;20020;-70
2021/05/21 12:51:13;;;;;;;17.27;3.35;;;;;;;;;;5087104;28;20028;-67
2021/05/21 12:53:39;;;;;;;25.02;3.58;;;;;;;;;;5074436;28;20043;-71
2021/05/21 12:56:05;;;;;;;24.58;4.50;;;;;;;;;;5085655;28;20039;-71
2021/05/21 12:58:41;;;;;;;15.45;3.30;;;;;;;;;;5089548;28;20031;-75
2021/05/21 13:01:07;;;;;;;29.38;3.97;;;;;;;;;;5069630;28;20039;-68
2021/05/21 13:03:53;;;;;;;23.85;3.72;;;;;;;;;;5087371;28;20036;-75
2021/05/21 13:06:26;;;;;;;23.83;3.28;;;;;;;;;;5087820;28;20012;-70
2021/05/21 13:08:52;;;;;;;19.42;3.42;;;;;;;;;;5067907;28;20568;-67
2021/05/21 13:11:19;;;;;;;18.27;3.72;;;;;;;;;;5084951;28;20024;-72
2021/05/21 13:13:45;;;;;;;19.73;3.67;;;;;;;;;;5081415;28;20012;-72
2021/05/21 13:16:11;;;;;;;13.50;2.70;;;;;;;;;;5086925;28;20031;-66
2021/05/21 13:18:41;;;;;;;23.42;3.80;;;;;;;;;;5059760;28;20029;-72
2021/05/21 13:21:10;;;;;;;19.67;4.03;;;;;;;;;;5079836;28;20029;-70
2021/05/21 13:23:37;;;;;;;21.15;3.53;;;;;;;;;;5087671;28;20036;-69
2021/05/21 13:26:04;;;;;;;18.42;3.53;;;;;;;;;;5079965;28;20039;-73
2021/05/21 13:28:40;;;;;;;17.42;2.83;;;;;;;;;;5078848;28;20020;-73
2021/05/21 13:31:07;;;;;;;23.63;2.92;;;;;;;;;;5059448;28;20038;-68
2021/05/21 13:33:33;;;;;;;28.20;4.13;;;;;;;;;;5081794;28;20653;-67
2021/05/21 13:35:59;;;;;;;24.13;4.00;;;;;;;;;;5061389;28;20085;-70
2021/05/21 13:38:25;;;;;;;12.57;2.65;;;;;;;;;;5081822;28;20754;-75
2021/05/21 13:40:51;;;;;;;19.00;3.42;;;;;;;;;;5085530;28;20103;-69
2021/05/21 13:43:18;;;;;;;14.15;3.72;;;;;;;;;;5058246;28;20033;-69
2021/05/21 13:45:46;;;;;;;14.43;3.00;;;;;;;;;;5062496;28;20012;-73
2021/05/21 13:48:12;;;;;;;17.50;3.53;;;;;;;;;;5067907;28;20460;-73
2021/05/21 13:50:39;;;;;;;25.77;3.55;;;;;;;;;;5084689;28;20031;-74
2021/05/21 13:53:05;;;;;;;20.83;3.28;;;;;;;;;;5086872;28;20089;-73
2021/05/21 13:55:32;;;;;;;19.08;2.17;;;;;;;;;;5082872;28;20028;-70
2021/05/21 13:57:58;;;;;;;17.98;3.40;;;;;;;;;;5083336;28;20070;-73
2021/05/21 14:00:24;;;;;;;18.05;3.08;;;;;;;;;;5080090;28;20024;-72
2021/05/21 14:02:50;;;;;;;14.43;2.53;;;;;;;;;;5088809;28;20027;-75
2021/05/21 14:05:16;;;;;;;15.57;2.65;;;;;;;;;;5085701;28;20040;-67
2021/05/21 14:07:44;;;;;;;17.30;2.53;;;;;;;;;;5084591;28;20020;-67
2021/05/21 14:10:10;;;;;;;14.40;2.90;;;;;;;;;;5087612;28;20286;-72
2021/05/21 14:12:36;;;;;;;26.23;4.40;;;;;;;;;;5083307;28;20099;-71
2021/05/21 14:15:03;;;;;;;17.08;3.58;;;;;;;;;;5081377;28;20035;-68
2021/05/21 14:17:29;;;;;;;21.30;2.83;;;;;;;;;;5067069;28;20027;-70
2021/05/21 14:19:55;;;;;;;14.07;2.70;;;;;;;;;;5078805;28;20056;-71
2021/05/21 14:22:22;;;;;;;24.23;3.78;;;;;;;;;;5085998;28;20020;-78
2021/05/21 14:24:48;;;;;;;13.73;2.30;;;;;;;;;;5085297;28;20028;-69
2021/05/21 14:27:16;;;;;;;14.98;2.20;;;;;;;;;;5086544;28;20488;-69
2021/05/21 14:29:42;;;;;;;17.70;2.75;;;;;;;;;;5087208;28;20028;-72
2021/05/21 14:32:08;;;;;;;17.23;3.20;;;;;;;;;;5061461;28;20124;-76